sensor_id;sensor_type;location;lat;lon;timestamp;temperature;humidity
47861;HTU21D;33620;52.340;5.984;2023-11-22T00:02:19;5.72;89.29
47861;HTU21D;33620;52.340;5.984;2023-11-22T00:04:45;5.71;89.27
47861;HTU21D;33620;52.340;5.984;2023-11-22T00:07:11;5.69;89.09
47861;HTU21D;33620;52.340;5.984;2023-11-22T00:09:36;5.63;89.11
47861;HTU21D;33620;52.340;5.984;2023-11-22T00:12:03;5.60;89.25
47861;HTU21D;33620;52.340;5.984;2023-11-22T00:14:28;5.60;89.17
47861;HTU21D;33620;52.340;5.984;2023-11-22T00:16:54;5.54;89.04
47861;HTU21D;33620;52.340;5.984;2023-11-22T00:19:19;5.51;89.13
47861;HTU21D;33620;52.340;5.984;2023-11-22T00:21:47;5.46;89.16
47861;HTU21D;33620;52.340;5.984;2023-11-22T00:24:13;5.43;89.14
47861;HTU21D;33620;52.340;5.984;2023-11-22T00:26:38;5.37;89.04
47861;HTU21D;33620;52.340;5.984;2023-11-22T00:29:04;5.34;89.07
47861;HTU21D;33620;52.340;5.984;2023-11-22T00:31:30;5.34;89.18
47861;HTU21D;33620;52.340;5.984;2023-11-22T00:33:55;5.32;88.97
47861;HTU21D;33620;52.340;5.984;2023-11-22T00:36:21;5.25;88.75
47861;HTU21D;33620;52.340;5.984;2023-11-22T00:38:46;5.19;88.80
47861;HTU21D;33620;52.340;5.984;2023-11-22T00:41:12;5.20;88.96
47861;HTU21D;33620;52.340;5.984;2023-11-22T00:43:39;5.16;89.01
47861;HTU21D;33620;52.340;5.984;2023-11-22T00:46:05;5.11;88.75
47861;HTU21D;33620;52.340;5.984;2023-11-22T00:48:31;5.05;88.74
47861;HTU21D;33620;52.340;5.984;2023-11-22T00:50:56;5.02;88.80
47861;HTU21D;33620;52.340;5.984;2023-11-22T00:53:22;4.98;88.80
47861;HTU21D;33620;52.340;5.984;2023-11-22T00:55:48;4.96;88.92
47861;HTU21D;33620;52.340;5.984;2023-11-22T00:58:13;4.98;89.12
47861;HTU21D;33620;52.340;5.984;2023-11-22T01:00:39;5.00;89.16
47861;HTU21D;33620;52.340;5.984;2023-11-22T01:03:04;5.03;89.14
47861;HTU21D;33620;52.340;5.984;2023-11-22T01:05:30;4.97;88.74
47861;HTU21D;33620;52.340;5.984;2023-11-22T01:07:55;4.92;88.70
47861;HTU21D;33620;52.340;5.984;2023-11-22T01:10:21;4.84;88.59
47861;HTU21D;33620;52.340;5.984;2023-11-22T01:12:47;4.80;88.60
47861;HTU21D;33620;52.340;5.984;2023-11-22T01:15:13;4.76;88.51
47861;HTU21D;33620;52.340;5.984;2023-11-22T01:17:39;4.73;88.79
47861;HTU21D;33620;52.340;5.984;2023-11-22T01:20:05;4.69;88.78
47861;HTU21D;33620;52.340;5.984;2023-11-22T01:22:31;4.64;88.87
47861;HTU21D;33620;52.340;5.984;2023-11-22T01:24:56;4.62;89.09
47861;HTU21D;33620;52.340;5.984;2023-11-22T01:27:21;4.62;89.08
47861;HTU21D;33620;52.340;5.984;2023-11-22T01:29:47;4.66;89.24
47861;HTU21D;33620;52.340;5.984;2023-11-22T01:32:12;4.64;88.86
47861;HTU21D;33620;52.340;5.984;2023-11-22T01:34:38;4.54;88.65
47861;HTU21D;33620;52.340;5.984;2023-11-22T01:37:03;4.50;88.71
47861;HTU21D;33620;52.340;5.984;2023-11-22T01:39:29;4.46;88.76
47861;HTU21D;33620;52.340;5.984;2023-11-22T01:41:54;4.45;88.89
47861;HTU21D;33620;52.340;5.984;2023-11-22T01:44:20;4.42;88.73
47861;HTU21D;33620;52.340;5.984;2023-11-22T01:46:46;4.39;88.86
47861;HTU21D;33620;52.340;5.984;2023-11-22T01:49:12;4.37;88.70
47861;HTU21D;33620;52.340;5.984;2023-11-22T01:51:39;4.31;88.55
47861;HTU21D;33620;52.340;5.984;2023-11-22T01:54:07;4.28;88.67
47861;HTU21D;33620;52.340;5.984;2023-11-22T01:56:35;4.22;88.64
47861;HTU21D;33620;52.340;5.984;2023-11-22T01:59:02;4.18;88.69
47861;HTU21D;33620;52.340;5.984;2023-11-22T02:01:27;4.18;88.83
47861;HTU21D;33620;52.340;5.984;2023-11-22T02:03:53;4.17;88.85
47861;HTU21D;33620;52.340;5.984;2023-11-22T02:06:20;4.12;88.70
47861;HTU21D;33620;52.340;5.984;2023-11-22T02:08:46;4.07;88.76
47861;HTU21D;33620;52.340;5.984;2023-11-22T02:11:12;4.06;88.83
47861;HTU21D;33620;52.340;5.984;2023-11-22T02:13:37;4.04;88.73
47861;HTU21D;33620;52.340;5.984;2023-11-22T02:16:03;4.00;88.67
47861;HTU21D;33620;52.340;5.984;2023-11-22T02:18:29;3.97;88.65
47861;HTU21D;33620;52.340;5.984;2023-11-22T02:20:54;3.93;88.65
47861;HTU21D;33620;52.340;5.984;2023-11-22T02:23:20;3.92;88.75
47861;HTU21D;33620;52.340;5.984;2023-11-22T02:25:46;3.90;88.72
47861;HTU21D;33620;52.340;5.984;2023-11-22T02:28:11;3.86;88.57
47861;HTU21D;33620;52.340;5.984;2023-11-22T02:30:37;3.82;88.68
47861;HTU21D;33620;52.340;5.984;2023-11-22T02:33:03;3.79;88.59
47861;HTU21D;33620;52.340;5.984;2023-11-22T02:35:30;3.76;88.54
47861;HTU21D;33620;52.340;5.984;2023-11-22T02:37:57;3.73;88.62
47861;HTU21D;33620;52.340;5.984;2023-11-22T02:40:23;3.71;88.54
47861;HTU21D;33620;52.340;5.984;2023-11-22T02:42:50;3.67;88.41
47861;HTU21D;33620;52.340;5.984;2023-11-22T02:45:17;3.59;88.54
47861;HTU21D;33620;52.340;5.984;2023-11-22T02:47:43;3.56;88.58
47861;HTU21D;33620;52.340;5.984;2023-11-22T02:50:13;3.50;88.54
47861;HTU21D;33620;52.340;5.984;2023-11-22T02:52:38;3.47;88.67
47861;HTU21D;33620;52.340;5.984;2023-11-22T02:55:04;3.42;88.78
47861;HTU21D;33620;52.340;5.984;2023-11-22T02:57:30;3.43;88.92
47861;HTU21D;33620;52.340;5.984;2023-11-22T02:59:56;3.46;89.12
47861;HTU21D;33620;52.340;5.984;2023-11-22T03:02:21;3.47;88.76
47861;HTU21D;33620;52.340;5.984;2023-11-22T03:04:47;3.44;88.68
47861;HTU21D;33620;52.340;5.984;2023-11-22T03:07:12;3.43;88.52
47861;HTU21D;33620;52.340;5.984;2023-11-22T03:09:37;3.44;88.63
47861;HTU21D;33620;52.340;5.984;2023-11-22T03:12:03;3.46;88.44
47861;HTU21D;33620;52.340;5.984;2023-11-22T03:14:29;3.45;88.31
47861;HTU21D;33620;52.340;5.984;2023-11-22T03:16:57;3.43;88.18
47861;HTU21D;33620;52.340;5.984;2023-11-22T03:19:22;3.38;88.09
47861;HTU21D;33620;52.340;5.984;2023-11-22T03:21:49;3.33;88.06
47861;HTU21D;33620;52.340;5.984;2023-11-22T03:24:15;3.32;88.23
47861;HTU21D;33620;52.340;5.984;2023-11-22T03:26:41;3.34;87.97
47861;HTU21D;33620;52.340;5.984;2023-11-22T03:29:06;3.31;87.92
47861;HTU21D;33620;52.340;5.984;2023-11-22T03:31:31;3.29;87.83
47861;HTU21D;33620;52.340;5.984;2023-11-22T03:33:57;3.20;87.76
47861;HTU21D;33620;52.340;5.984;2023-11-22T03:36:23;3.23;87.89
47861;HTU21D;33620;52.340;5.984;2023-11-22T03:38:49;3.28;88.06
47861;HTU21D;33620;52.340;5.984;2023-11-22T03:41:15;3.31;87.75
47861;HTU21D;33620;52.340;5.984;2023-11-22T03:43:40;3.26;87.59
47861;HTU21D;33620;52.340;5.984;2023-11-22T03:46:05;3.18;87.50
47861;HTU21D;33620;52.340;5.984;2023-11-22T03:48:31;3.18;87.84
47861;HTU21D;33620;52.340;5.984;2023-11-22T03:50:57;3.19;87.85
47861;HTU21D;33620;52.340;5.984;2023-11-22T03:53:22;3.16;87.68
47861;HTU21D;33620;52.340;5.984;2023-11-22T03:55:49;3.08;87.75
47861;HTU21D;33620;52.340;5.984;2023-11-22T03:58:15;3.04;87.99
47861;HTU21D;33620;52.340;5.984;2023-11-22T04:00:40;3.00;88.17
47861;HTU21D;33620;52.340;5.984;2023-11-22T04:03:06;2.96;88.38
47861;HTU21D;33620;52.340;5.984;2023-11-22T04:05:31;2.91;88.44
47861;HTU21D;33620;52.340;5.984;2023-11-22T04:07:57;2.88;88.50
47861;HTU21D;33620;52.340;5.984;2023-11-22T04:10:22;2.85;88.57
47861;HTU21D;33620;52.340;5.984;2023-11-22T04:12:49;2.81;88.57
47861;HTU21D;33620;52.340;5.984;2023-11-22T04:15:14;2.76;88.49
47861;HTU21D;33620;52.340;5.984;2023-11-22T04:17:40;2.73;88.43
47861;HTU21D;33620;52.340;5.984;2023-11-22T04:20:07;2.69;88.47
47861;HTU21D;33620;52.340;5.984;2023-11-22T04:22:39;2.67;88.51
47861;HTU21D;33620;52.340;5.984;2023-11-22T04:25:05;2.62;88.54
47861;HTU21D;33620;52.340;5.984;2023-11-22T04:27:30;2.59;88.54
47861;HTU21D;33620;52.340;5.984;2023-11-22T04:29:56;2.54;88.56
47861;HTU21D;33620;52.340;5.984;2023-11-22T04:32:21;2.54;88.75
47861;HTU21D;33620;52.340;5.984;2023-11-22T04:34:47;2.55;88.70
47861;HTU21D;33620;52.340;5.984;2023-11-22T04:37:12;2.53;88.61
47861;HTU21D;33620;52.340;5.984;2023-11-22T04:39:38;2.49;88.51
47861;HTU21D;33620;52.340;5.984;2023-11-22T04:42:03;2.49;88.76
47861;HTU21D;33620;52.340;5.984;2023-11-22T04:44:29;2.46;88.54
47861;HTU21D;33620;52.340;5.984;2023-11-22T04:46:54;2.44;88.46
47861;HTU21D;33620;52.340;5.984;2023-11-22T04:49:19;2.41;88.47
47861;HTU21D;33620;52.340;5.984;2023-11-22T04:51:44;2.40;88.55
47861;HTU21D;33620;52.340;5.984;2023-11-22T04:54:11;2.42;88.47
47861;HTU21D;33620;52.340;5.984;2023-11-22T04:56:36;2.42;88.49
47861;HTU21D;33620;52.340;5.984;2023-11-22T04:59:02;2.40;88.25
47861;HTU21D;33620;52.340;5.984;2023-11-22T05:01:32;2.39;88.42
47861;HTU21D;33620;52.340;5.984;2023-11-22T05:03:58;2.40;88.35
47861;HTU21D;33620;52.340;5.984;2023-11-22T05:06:24;2.39;88.28
47861;HTU21D;33620;52.340;5.984;2023-11-22T05:08:49;2.40;88.35
47861;HTU21D;33620;52.340;5.984;2023-11-22T05:11:15;2.39;88.31
47861;HTU21D;33620;52.340;5.984;2023-11-22T05:13:41;2.42;88.47
47861;HTU21D;33620;52.340;5.984;2023-11-22T05:16:08;2.41;88.47
47861;HTU21D;33620;52.340;5.984;2023-11-22T05:18:34;2.43;88.63
47861;HTU21D;33620;52.340;5.984;2023-11-22T05:20:59;2.41;88.57
47861;HTU21D;33620;52.340;5.984;2023-11-22T05:23:25;2.40;88.58
47861;HTU21D;33620;52.340;5.984;2023-11-22T05:25:50;2.40;88.65
47861;HTU21D;33620;52.340;5.984;2023-11-22T05:28:15;2.46;88.60
47861;HTU21D;33620;52.340;5.984;2023-11-22T05:30:41;2.44;88.60
47861;HTU21D;33620;52.340;5.984;2023-11-22T05:33:06;2.53;88.67
47861;HTU21D;33620;52.340;5.984;2023-11-22T05:35:32;2.57;88.61
47861;HTU21D;33620;52.340;5.984;2023-11-22T05:37:58;2.58;88.44
47861;HTU21D;33620;52.340;5.984;2023-11-22T05:40:23;2.57;88.43
47861;HTU21D;33620;52.340;5.984;2023-11-22T05:42:49;2.57;88.51
47861;HTU21D;33620;52.340;5.984;2023-11-22T05:45:14;2.61;88.64
47861;HTU21D;33620;52.340;5.984;2023-11-22T05:47:40;2.67;88.80
47861;HTU21D;33620;52.340;5.984;2023-11-22T05:50:07;2.71;88.86
47861;HTU21D;33620;52.340;5.984;2023-11-22T05:52:32;2.73;88.80
47861;HTU21D;33620;52.340;5.984;2023-11-22T05:54:58;2.72;88.78
47861;HTU21D;33620;52.340;5.984;2023-11-22T05:57:23;2.72;88.80
47861;HTU21D;33620;52.340;5.984;2023-11-22T05:59:49;2.70;88.73
47861;HTU21D;33620;52.340;5.984;2023-11-22T06:02:14;2.66;88.69
47861;HTU21D;33620;52.340;5.984;2023-11-22T06:04:39;2.60;88.89
47861;HTU21D;33620;52.340;5.984;2023-11-22T06:07:05;2.57;88.91
47861;HTU21D;33620;52.340;5.984;2023-11-22T06:09:30;2.59;89.12
47861;HTU21D;33620;52.340;5.984;2023-11-22T06:11:55;2.59;89.13
47861;HTU21D;33620;52.340;5.984;2023-11-22T06:14:21;2.61;89.23
47861;HTU21D;33620;52.340;5.984;2023-11-22T06:16:47;2.61;89.30
47861;HTU21D;33620;52.340;5.984;2023-11-22T06:19:12;2.60;89.39
47861;HTU21D;33620;52.340;5.984;2023-11-22T06:21:37;2.60;89.60
47861;HTU21D;33620;52.340;5.984;2023-11-22T06:24:04;2.60;89.73
47861;HTU21D;33620;52.340;5.984;2023-11-22T06:26:33;2.64;89.96
47861;HTU21D;33620;52.340;5.984;2023-11-22T06:29:00;2.62;89.93
47861;HTU21D;33620;52.340;5.984;2023-11-22T06:31:25;2.62;89.95
47861;HTU21D;33620;52.340;5.984;2023-11-22T06:33:50;2.64;89.97
47861;HTU21D;33620;52.340;5.984;2023-11-22T06:36:17;2.62;90.03
47861;HTU21D;33620;52.340;5.984;2023-11-22T06:38:43;2.64;90.05
47861;HTU21D;33620;52.340;5.984;2023-11-22T06:41:10;2.66;90.19
47861;HTU21D;33620;52.340;5.984;2023-11-22T06:43:36;2.65;90.14
47861;HTU21D;33620;52.340;5.984;2023-11-22T06:46:01;2.66;90.18
47861;HTU21D;33620;52.340;5.984;2023-11-22T06:48:30;2.67;90.15
47861;HTU21D;33620;52.340;5.984;2023-11-22T06:50:56;2.67;90.15
47861;HTU21D;33620;52.340;5.984;2023-11-22T06:53:21;2.67;90.20
47861;HTU21D;33620;52.340;5.984;2023-11-22T06:55:46;2.65;90.23
47861;HTU21D;33620;52.340;5.984;2023-11-22T06:58:12;2.70;90.57
47861;HTU21D;33620;52.340;5.984;2023-11-22T07:00:38;2.76;90.12
47861;HTU21D;33620;52.340;5.984;2023-11-22T07:03:05;2.80;90.21
47861;HTU21D;33620;52.340;5.984;2023-11-22T07:05:31;2.80;90.10
47861;HTU21D;33620;52.340;5.984;2023-11-22T07:07:56;2.84;90.13
47861;HTU21D;33620;52.340;5.984;2023-11-22T07:10:22;2.89;90.11
47861;HTU21D;33620;52.340;5.984;2023-11-22T07:12:47;2.90;89.87
47861;HTU21D;33620;52.340;5.984;2023-11-22T07:15:13;2.87;89.70
47861;HTU21D;33620;52.340;5.984;2023-11-22T07:17:39;2.85;89.73
47861;HTU21D;33620;52.340;5.984;2023-11-22T07:20:06;2.85;89.73
47861;HTU21D;33620;52.340;5.984;2023-11-22T07:22:35;2.82;89.71
47861;HTU21D;33620;52.340;5.984;2023-11-22T07:25:00;2.80;89.72
47861;HTU21D;33620;52.340;5.984;2023-11-22T07:27:27;2.78;89.72
47861;HTU21D;33620;52.340;5.984;2023-11-22T07:29:53;2.73;89.87
47861;HTU21D;33620;52.340;5.984;2023-11-22T07:32:19;2.73;90.10
47861;HTU21D;33620;52.340;5.984;2023-11-22T07:34:47;2.75;90.15
47861;HTU21D;33620;52.340;5.984;2023-11-22T07:37:13;2.76;90.12
47861;HTU21D;33620;52.340;5.984;2023-11-22T07:39:40;2.75;90.18
47861;HTU21D;33620;52.340;5.984;2023-11-22T07:42:08;2.78;90.36
47861;HTU21D;33620;52.340;5.984;2023-11-22T07:44:35;2.81;90.47
47861;HTU21D;33620;52.340;5.984;2023-11-22T07:47:01;2.84;90.66
47861;HTU21D;33620;52.340;5.984;2023-11-22T07:49:27;2.88;90.68
47861;HTU21D;33620;52.340;5.984;2023-11-22T07:51:54;2.95;90.88
47861;HTU21D;33620;52.340;5.984;2023-11-22T07:54:19;3.03;91.08
47861;HTU21D;33620;52.340;5.984;2023-11-22T07:56:50;3.11;91.00
47861;HTU21D;33620;52.340;5.984;2023-11-22T07:59:17;3.15;91.02
47861;HTU21D;33620;52.340;5.984;2023-11-22T08:01:43;3.18;91.12
47861;HTU21D;33620;52.340;5.984;2023-11-22T08:04:08;3.17;90.95
47861;HTU21D;33620;52.340;5.984;2023-11-22T08:06:35;3.18;90.98
47861;HTU21D;33620;52.340;5.984;2023-11-22T08:09:00;3.21;91.27
47861;HTU21D;33620;52.340;5.984;2023-11-22T08:11:30;3.28;91.19
47861;HTU21D;33620;52.340;5.984;2023-11-22T08:13:59;3.29;91.01
47861;HTU21D;33620;52.340;5.984;2023-11-22T08:16:25;3.32;91.05
47861;HTU21D;33620;52.340;5.984;2023-11-22T08:18:52;3.34;91.20
47861;HTU21D;33620;52.340;5.984;2023-11-22T08:21:18;3.34;91.22
47861;HTU21D;33620;52.340;5.984;2023-11-22T08:23:45;3.38;91.25
47861;HTU21D;33620;52.340;5.984;2023-11-22T08:26:12;3.40;91.37
47861;HTU21D;33620;52.340;5.984;2023-11-22T08:28:37;3.42;91.45
47861;HTU21D;33620;52.340;5.984;2023-11-22T08:31:03;3.43;91.40
47861;HTU21D;33620;52.340;5.984;2023-11-22T08:33:29;3.40;91.34
47861;HTU21D;33620;52.340;5.984;2023-11-22T08:35:55;3.38;91.44
47861;HTU21D;33620;52.340;5.984;2023-11-22T08:38:25;3.31;91.56
47861;HTU21D;33620;52.340;5.984;2023-11-22T08:40:53;3.33;91.71
47861;HTU21D;33620;52.340;5.984;2023-11-22T08:43:20;3.34;91.97
47861;HTU21D;33620;52.340;5.984;2023-11-22T08:45:49;3.36;92.14
47861;HTU21D;33620;52.340;5.984;2023-11-22T08:48:14;3.42;92.22
47861;HTU21D;33620;52.340;5.984;2023-11-22T08:50:40;3.45;92.32
47861;HTU21D;33620;52.340;5.984;2023-11-22T08:53:06;3.50;92.44
47861;HTU21D;33620;52.340;5.984;2023-11-22T08:55:32;3.56;92.50
47861;HTU21D;33620;52.340;5.984;2023-11-22T08:57:59;3.62;92.61
47861;HTU21D;33620;52.340;5.984;2023-11-22T09:00:24;3.69;92.70
47861;HTU21D;33620;52.340;5.984;2023-11-22T09:02:53;3.75;92.75
47861;HTU21D;33620;52.340;5.984;2023-11-22T09:05:20;3.79;92.79
47861;HTU21D;33620;52.340;5.984;2023-11-22T09:07:46;3.85;92.96
47861;HTU21D;33620;52.340;5.984;2023-11-22T09:10:12;3.91;92.92
47861;HTU21D;33620;52.340;5.984;2023-11-22T09:12:40;3.97;92.98
47861;HTU21D;33620;52.340;5.984;2023-11-22T09:15:10;4.01;92.94
47861;HTU21D;33620;52.340;5.984;2023-11-22T09:17:40;4.02;93.09
47861;HTU21D;33620;52.340;5.984;2023-11-22T09:20:15;4.09;93.14
47861;HTU21D;33620;52.340;5.984;2023-11-22T09:22:48;4.14;93.28
47861;HTU21D;33620;52.340;5.984;2023-11-22T09:25:20;4.20;93.24
47861;HTU21D;33620;52.340;5.984;2023-11-22T09:27:51;4.26;93.36
47861;HTU21D;33620;52.340;5.984;2023-11-22T09:30:22;4.33;93.33
47861;HTU21D;33620;52.340;5.984;2023-11-22T09:33:14;4.37;93.45
47861;HTU21D;33620;52.340;5.984;2023-11-22T09:35:46;4.43;93.52
47861;HTU21D;33620;52.340;5.984;2023-11-22T09:38:12;4.46;93.57
47861;HTU21D;33620;52.340;5.984;2023-11-22T09:40:45;4.51;93.62
47861;HTU21D;33620;52.340;5.984;2023-11-22T09:43:11;4.54;93.64
47861;HTU21D;33620;52.340;5.984;2023-11-22T09:45:37;4.58;93.76
47861;HTU21D;33620;52.340;5.984;2023-11-22T09:48:07;4.62;93.50
47861;HTU21D;33620;52.340;5.984;2023-11-22T09:50:50;4.61;93.57
47861;HTU21D;33620;52.340;5.984;2023-11-22T09:53:25;4.63;93.72
47861;HTU21D;33620;52.340;5.984;2023-11-22T09:55:55;4.63;93.72
47861;HTU21D;33620;52.340;5.984;2023-11-22T09:58:20;4.67;93.85
47861;HTU21D;33620;52.340;5.984;2023-11-22T10:00:47;4.74;93.88
47861;HTU21D;33620;52.340;5.984;2023-11-22T10:03:13;4.76;93.72
47861;HTU21D;33620;52.340;5.984;2023-11-22T10:05:43;4.78;93.61
47861;HTU21D;33620;52.340;5.984;2023-11-22T10:08:08;4.77;93.59
47861;HTU21D;33620;52.340;5.984;2023-11-22T10:10:36;4.81;93.78
47861;HTU21D;33620;52.340;5.984;2023-11-22T10:13:02;4.86;93.82
47861;HTU21D;33620;52.340;5.984;2023-11-22T10:15:29;4.92;93.86
47861;HTU21D;33620;52.340;5.984;2023-11-22T10:17:55;4.92;93.66
47861;HTU21D;33620;52.340;5.984;2023-11-22T10:20:36;4.97;93.81
47861;HTU21D;33620;52.340;5.984;2023-11-22T10:23:01;5.04;93.84
47861;HTU21D;33620;52.340;5.984;2023-11-22T10:25:27;5.08;93.95
47861;HTU21D;33620;52.340;5.984;2023-11-22T10:27:54;5.16;93.98
47861;HTU21D;33620;52.340;5.984;2023-11-22T10:30:20;5.22;93.98
47861;HTU21D;33620;52.340;5.984;2023-11-22T10:32:45;5.25;93.92
47861;HTU21D;33620;52.340;5.984;2023-11-22T10:35:11;5.30;93.86
47861;HTU21D;33620;52.340;5.984;2023-11-22T10:37:41;5.33;93.70
47861;HTU21D;33620;52.340;5.984;2023-11-22T10:40:07;5.38;93.67
47861;HTU21D;33620;52.340;5.984;2023-11-22T10:42:36;5.40;93.43
47861;HTU21D;33620;52.340;5.984;2023-11-22T10:45:03;5.42;93.24
47861;HTU21D;33620;52.340;5.984;2023-11-22T10:47:37;5.43;92.97
47861;HTU21D;33620;52.340;5.984;2023-11-22T10:50:05;5.47;92.93
47861;HTU21D;33620;52.340;5.984;2023-11-22T10:52:33;5.49;92.74
47861;HTU21D;33620;52.340;5.984;2023-11-22T10:55:02;5.50;92.62
47861;HTU21D;33620;52.340;5.984;2023-11-22T10:57:31;5.54;92.50
47861;HTU21D;33620;52.340;5.984;2023-11-22T11:00:00;5.57;92.53
47861;HTU21D;33620;52.340;5.984;2023-11-22T11:02:32;5.60;92.41
47861;HTU21D;33620;52.340;5.984;2023-11-22T11:05:03;5.63;92.38
47861;HTU21D;33620;52.340;5.984;2023-11-22T11:07:39;5.66;92.14
47861;HTU21D;33620;52.340;5.984;2023-11-22T11:10:07;5.69;92.21
47861;HTU21D;33620;52.340;5.984;2023-11-22T11:12:33;5.76;92.25
47861;HTU21D;33620;52.340;5.984;2023-11-22T11:14:58;5.80;92.18
47861;HTU21D;33620;52.340;5.984;2023-11-22T11:17:25;5.79;91.76
47861;HTU21D;33620;52.340;5.984;2023-11-22T11:19:50;5.81;91.74
47861;HTU21D;33620;52.340;5.984;2023-11-22T11:22:16;5.84;91.63
47861;HTU21D;33620;52.340;5.984;2023-11-22T11:24:47;5.86;91.56
47861;HTU21D;33620;52.340;5.984;2023-11-22T11:27:12;5.87;91.36
47861;HTU21D;33620;52.340;5.984;2023-11-22T11:29:38;5.84;91.14
47861;HTU21D;33620;52.340;5.984;2023-11-22T11:32:12;5.85;91.14
47861;HTU21D;33620;52.340;5.984;2023-11-22T11:34:50;5.89;91.31
47861;HTU21D;33620;52.340;5.984;2023-11-22T11:37:18;5.90;91.10
47861;HTU21D;33620;52.340;5.984;2023-11-22T11:39:45;5.93;91.02
47861;HTU21D;33620;52.340;5.984;2023-11-22T11:42:11;5.97;91.11
47861;HTU21D;33620;52.340;5.984;2023-11-22T11:47:16;6.01;90.87
47861;HTU21D;33620;52.340;5.984;2023-11-22T11:49:41;6.01;90.64
47861;HTU21D;33620;52.340;5.984;2023-11-22T11:52:07;6.04;90.52
47861;HTU21D;33620;52.340;5.984;2023-11-22T11:54:33;6.07;90.40
47861;HTU21D;33620;52.340;5.984;2023-11-22T11:57:00;6.09;90.20
47861;HTU21D;33620;52.340;5.984;2023-11-22T11:59:26;6.12;90.17
47861;HTU21D;33620;52.340;5.984;2023-11-22T12:01:53;6.15;90.33
47861;HTU21D;33620;52.340;5.984;2023-11-22T12:04:22;6.16;90.02
47861;HTU21D;33620;52.340;5.984;2023-11-22T12:06:47;6.17;89.87
47861;HTU21D;33620;52.340;5.984;2023-11-22T12:09:13;6.19;88.93
47861;HTU21D;33620;52.340;5.984;2023-11-22T12:11:39;6.11;86.93
47861;HTU21D;33620;52.340;5.984;2023-11-22T12:14:04;6.06;85.94
47861;HTU21D;33620;52.340;5.984;2023-11-22T12:16:30;6.10;86.24
47861;HTU21D;33620;52.340;5.984;2023-11-22T12:18:55;6.12;86.65
47861;HTU21D;33620;52.340;5.984;2023-11-22T12:21:23;6.15;86.61
47861;HTU21D;33620;52.340;5.984;2023-11-22T12:23:49;6.15;86.62
47861;HTU21D;33620;52.340;5.984;2023-11-22T12:26:16;6.15;86.07
47861;HTU21D;33620;52.340;5.984;2023-11-22T12:28:44;6.15;84.62
47861;HTU21D;33620;52.340;5.984;2023-11-22T12:31:11;6.22;85.55
47861;HTU21D;33620;52.340;5.984;2023-11-22T12:33:37;6.30;86.70
47861;HTU21D;33620;52.340;5.984;2023-11-22T12:36:07;6.37;86.58
47861;HTU21D;33620;52.340;5.984;2023-11-22T12:38:35;6.42;86.56
47861;HTU21D;33620;52.340;5.984;2023-11-22T12:41:00;6.46;86.35
47861;HTU21D;33620;52.340;5.984;2023-11-22T12:43:28;6.50;86.35
47861;HTU21D;33620;52.340;5.984;2023-11-22T12:46:03;6.55;86.29
47861;HTU21D;33620;52.340;5.984;2023-11-22T12:48:29;6.55;86.26
47861;HTU21D;33620;52.340;5.984;2023-11-22T12:50:56;6.56;86.20
47861;HTU21D;33620;52.340;5.984;2023-11-22T12:53:22;6.57;86.14
47861;HTU21D;33620;52.340;5.984;2023-11-22T12:55:49;6.58;86.22
47861;HTU21D;33620;52.340;5.984;2023-11-22T12:58:16;6.54;85.37
47861;HTU21D;33620;52.340;5.984;2023-11-22T13:00:43;6.53;85.23
47861;HTU21D;33620;52.340;5.984;2023-11-22T13:03:09;6.54;85.40
47861;HTU21D;33620;52.340;5.984;2023-11-22T13:05:38;6.56;85.64
47861;HTU21D;33620;52.340;5.984;2023-11-22T13:08:04;6.53;85.67
47861;HTU21D;33620;52.340;5.984;2023-11-22T13:10:29;6.55;85.80
47861;HTU21D;33620;52.340;5.984;2023-11-22T13:12:55;6.54;85.66
47861;HTU21D;33620;52.340;5.984;2023-11-22T13:15:21;6.51;84.83
47861;HTU21D;33620;52.340;5.984;2023-11-22T13:17:54;6.49;85.17
47861;HTU21D;33620;52.340;5.984;2023-11-22T13:20:27;6.53;85.39
47861;HTU21D;33620;52.340;5.984;2023-11-22T13:22:53;6.48;84.90
47861;HTU21D;33620;52.340;5.984;2023-11-22T13:25:19;6.45;85.07
47861;HTU21D;33620;52.340;5.984;2023-11-22T13:27:50;6.46;85.59
47861;HTU21D;33620;52.340;5.984;2023-11-22T13:30:16;6.45;85.54
47861;HTU21D;33620;52.340;5.984;2023-11-22T13:32:43;6.48;85.45
47861;HTU21D;33620;52.340;5.984;2023-11-22T13:35:09;6.49;85.47
47861;HTU21D;33620;52.340;5.984;2023-11-22T13:37:47;6.50;85.56
47861;HTU21D;33620;52.340;5.984;2023-11-22T13:40:15;6.50;85.45
47861;HTU21D;33620;52.340;5.984;2023-11-22T13:42:44;6.49;85.42
47861;HTU21D;33620;52.340;5.984;2023-11-22T13:45:14;6.43;84.20
47861;HTU21D;33620;52.340;5.984;2023-11-22T13:47:46;6.42;84.83
47861;HTU21D;33620;52.340;5.984;2023-11-22T13:50:16;6.40;84.98
47861;HTU21D;33620;52.340;5.984;2023-11-22T13:52:47;6.40;85.11
47861;HTU21D;33620;52.340;5.984;2023-11-22T13:55:13;6.38;84.94
47861;HTU21D;33620;52.340;5.984;2023-11-22T13:57:39;6.36;84.79
47861;HTU21D;33620;52.340;5.984;2023-11-22T14:00:05;6.39;85.29
47861;HTU21D;33620;52.340;5.984;2023-11-22T14:02:37;6.40;85.16
47861;HTU21D;33620;52.340;5.984;2023-11-22T14:05:03;6.39;85.04
47861;HTU21D;33620;52.340;5.984;2023-11-22T14:07:35;6.40;84.97
47861;HTU21D;33620;52.340;5.984;2023-11-22T14:10:02;6.33;83.89
47861;HTU21D;33620;52.340;5.984;2023-11-22T14:12:29;6.30;84.86
47861;HTU21D;33620;52.340;5.984;2023-11-22T14:14:54;6.33;85.36
47861;HTU21D;33620;52.340;5.984;2023-11-22T14:17:19;6.29;85.23
47861;HTU21D;33620;52.340;5.984;2023-11-22T14:19:46;6.30;85.68
47861;HTU21D;33620;52.340;5.984;2023-11-22T14:22:12;6.30;85.90
47861;HTU21D;33620;52.340;5.984;2023-11-22T14:24:39;6.29;86.30
47861;HTU21D;33620;52.340;5.984;2023-11-22T14:27:04;6.28;86.44
47861;HTU21D;33620;52.340;5.984;2023-11-22T14:29:30;6.28;86.45
47861;HTU21D;33620;52.340;5.984;2023-11-22T14:31:56;6.29;86.81
47861;HTU21D;33620;52.340;5.984;2023-11-22T14:34:22;6.31;87.09
47861;HTU21D;33620;52.340;5.984;2023-11-22T14:36:47;6.29;87.22
47861;HTU21D;33620;52.340;5.984;2023-11-22T14:39:12;6.28;87.28
47861;HTU21D;33620;52.340;5.984;2023-11-22T14:41:40;6.28;87.42
47861;HTU21D;33620;52.340;5.984;2023-11-22T14:44:05;6.29;87.52
47861;HTU21D;33620;52.340;5.984;2023-11-22T14:46:31;6.29;87.61
47861;HTU21D;33620;52.340;5.984;2023-11-22T14:48:57;6.26;87.70
47861;HTU21D;33620;52.340;5.984;2023-11-22T14:51:23;6.24;87.67
47861;HTU21D;33620;52.340;5.984;2023-11-22T14:53:48;6.25;87.76
47861;HTU21D;33620;52.340;5.984;2023-11-22T14:56:14;6.21;87.45
47861;HTU21D;33620;52.340;5.984;2023-11-22T14:58:40;6.21;87.67
47861;HTU21D;33620;52.340;5.984;2023-11-22T15:01:06;6.21;87.80
47861;HTU21D;33620;52.340;5.984;2023-11-22T15:03:34;6.21;87.98
47861;HTU21D;33620;52.340;5.984;2023-11-22T15:06:01;6.15;87.83
47861;HTU21D;33620;52.340;5.984;2023-11-22T15:08:26;6.14;88.25
47861;HTU21D;33620;52.340;5.984;2023-11-22T15:10:54;6.15;88.52
47861;HTU21D;33620;52.340;5.984;2023-11-22T15:13:20;6.13;88.31
47861;HTU21D;33620;52.340;5.984;2023-11-22T15:15:46;6.07;88.39
47861;HTU21D;33620;52.340;5.984;2023-11-22T15:18:11;6.06;88.58
47861;HTU21D;33620;52.340;5.984;2023-11-22T15:20:37;6.06;88.90
47861;HTU21D;33620;52.340;5.984;2023-11-22T15:23:03;6.06;89.09
47861;HTU21D;33620;52.340;5.984;2023-11-22T15:25:30;6.02;89.04
47861;HTU21D;33620;52.340;5.984;2023-11-22T15:27:56;5.97;89.19
47861;HTU21D;33620;52.340;5.984;2023-11-22T15:30:24;5.97;89.65